Terminal Aerodrome Forecast
Issued by NWS Upton, NY

Home | Current Version | Previous Version | Text Only | Print | Product List | Glossary On
Versions: 1 2 3 4 5 6 7 8 9 10 11 12 13 14 15 16 17 18 19 20 21 22 23 24 25 26 27 28 29 30 31 32 33 34 35
032
FTUS41 KOKX 241323 AAB
TAFJFK
TAF AMD
KJFK 241323Z 2413/2518 04006KT P6SM SCT015 OVC080
     FM241600 06009KT P6SM FEW020 OVC060
     FM242100 10010KT P6SM FEW030 OVC060
     FM250300 09013KT P6SM BKN020 OVC040
     FM250800 07014KT 6SM -RA BR BKN007 OVC020
     FM251400 08014KT 2SM -RA BR BKN004 OVC008=

USA.gov is the U.S. government's official web portal to all federal, state and local government web resources and services.